createdAt,value
2022-07-25T00:00:13.052Z,100717.84
2022-07-25T00:01:15.179Z,100729.53
2022-07-25T00:02:17.593Z,100741.91
2022-07-25T00:03:19.432Z,100726.19
2022-07-25T00:04:21.650Z,100743.81
2022-07-25T00:05:24.359Z,100733.28
2022-07-25T00:06:26.328Z,100742.13
2022-07-25T00:07:28.724Z,100739.44
2022-07-25T00:08:30.589Z,100739.44
2022-07-25T00:09:32.500Z,100726.66
2022-07-25T00:10:34.305Z,100732.31
2022-07-25T00:11:36.223Z,100737.09
2022-07-25T00:12:38.795Z,100736.44
2022-07-25T00:13:40.587Z,100730.13
2022-07-25T00:14:42.369Z,100734.16
2022-07-25T00:15:44.413Z,100724.50
2022-07-25T00:16:46.235Z,100736.22
2022-07-25T00:17:48.184Z,100732.06
2022-07-25T00:18:50.094Z,100722.63
2022-07-25T00:19:52.040Z,100714.06
2022-07-25T00:20:53.885Z,100731.44
2022-07-25T00:21:55.690Z,100700.72
2022-07-25T00:22:57.451Z,100723.25
2022-07-25T00:23:59.271Z,100722.00
2022-07-25T00:25:01.098Z,100713.22
2022-07-25T00:26:02.890Z,100723.94
2022-07-25T00:27:04.899Z,100709.91
2022-07-25T00:28:06.808Z,100723.50
2022-07-25T00:29:08.599Z,100695.69
2022-07-25T00:30:10.867Z,100720.78
2022-07-25T00:31:12.733Z,100710.13
2022-07-25T00:32:14.691Z,100705.50
2022-07-25T00:33:16.846Z,100725.38
2022-07-25T00:34:18.682Z,100720.78
2022-07-25T00:35:20.506Z,100719.97
2022-07-25T00:36:22.257Z,100724.34
2022-07-25T00:37:24.095Z,100716.16
2022-07-25T00:38:25.844Z,100722.84
2022-07-25T00:39:27.722Z,100709.47
2022-07-25T00:40:29.549Z,100708.84
2022-07-25T00:41:31.574Z,100701.13
2022-07-25T00:42:33.454Z,100704.25
2022-07-25T00:43:35.381Z,100713.88
2022-07-25T00:44:37.780Z,100695.88
2022-07-25T00:45:39.621Z,100704.88
2022-07-25T00:46:41.604Z,100694.44
2022-07-25T00:47:43.399Z,100687.34
2022-07-25T00:48:45.226Z,100700.31
2022-07-25T00:49:47.215Z,100704.06
2022-07-25T00:50:49.225Z,100709.72
2022-07-25T00:51:52.316Z,100702.38
2022-07-25T00:52:54.894Z,100699.28
2022-07-25T00:53:57.744Z,100677.31
2022-07-25T00:54:59.837Z,100691.31
2022-07-25T00:56:02.036Z,100702.63
2022-07-25T00:57:04.206Z,100698.00
2022-07-25T00:58:06.043Z,100704.47
2022-07-25T00:59:09.160Z,100700.94
2022-07-25T01:00:15.344Z,100701.75
2022-07-25T01:01:17.607Z,100685.28
2022-07-25T01:02:19.537Z,100686.53
2022-07-25T01:03:21.589Z,100674.84
2022-07-25T01:04:23.598Z,100661.88
2022-07-25T01:05:25.620Z,100672.75
2022-07-25T01:06:27.610Z,100675.47
2022-07-25T01:07:29.963Z,100671.50
2022-07-25T01:08:32.516Z,100676.91
2022-07-25T01:09:34.431Z,100684.88
2022-07-25T01:10:36.773Z,100671.06
2022-07-25T01:11:39.305Z,100666.47
2022-07-25T01:12:47.451Z,100678.81
2022-07-25T01:13:49.304Z,100678.41
2022-07-25T01:14:51.155Z,100674.03
2022-07-25T01:15:53.079Z,100662.31
2022-07-25T01:16:55.244Z,100661.06
2022-07-25T01:17:57.588Z,100674.03
2022-07-25T01:18:59.419Z,100659.38
2022-07-25T01:20:01.179Z,100668.59
2022-07-25T01:21:03.236Z,100651.47
2022-07-25T01:22:05.287Z,100621.94
2022-07-25T01:23:07.079Z,100653.91
2022-07-25T01:24:10.368Z,100680.88
2022-07-25T01:25:14.580Z,100682.34
2022-07-25T01:26:16.401Z,100662.50
2022-07-25T01:27:18.219Z,100657.66
2022-07-25T01:28:20.240Z,100676.91
2022-07-25T01:29:22.426Z,100677.34
2022-07-25T01:30:25.255Z,100670.84
2022-07-25T01:31:27.266Z,100653.28
2022-07-25T01:32:29.140Z,100674.00
2022-07-25T01:33:30.954Z,100666.69
2022-07-25T01:34:32.768Z,100648.28
2022-07-25T01:35:34.673Z,100669.81
2022-07-25T01:36:36.471Z,100674.00
2022-07-25T01:37:38.826Z,100685.69
2022-07-25T01:38:40.604Z,100658.06
2022-07-25T01:39:42.535Z,100652.06
2022-07-25T01:40:45.874Z,100671.50
2022-07-25T01:41:47.668Z,100644.97
2022-07-25T01:42:49.476Z,100666.91
2022-07-25T01:43:51.401Z,100642.66
2022-07-25T01:44:53.361Z,100646.84
2022-07-25T01:45:55.262Z,100639.75
2022-07-25T01:46:57.292Z,100632.00
2022-07-25T01:47:59.329Z,100650.81
2022-07-25T01:49:01.225Z,100662.09
2022-07-25T01:50:04.080Z,100633.50
2022-07-25T01:51:06.119Z,100648.97
2022-07-25T01:52:08.698Z,100653.56
2022-07-25T01:53:10.475Z,100633.50
2022-07-25T01:54:12.267Z,100637.25
2022-07-25T01:55:14.223Z,100654.59
2022-07-25T01:56:16.135Z,100648.75
2022-07-25T01:57:18.010Z,100656.47
2022-07-25T01:58:19.976Z,100640.38
2022-07-25T01:59:23.294Z,100651.66
2022-07-25T02:00:25.102Z,100643.72
2022-07-25T02:01:27.089Z,100662.72
2022-07-25T02:02:28.910Z,100640.38
2022-07-25T02:03:30.683Z,100640.16
2022-07-25T02:04:32.838Z,100653.09
2022-07-25T02:05:34.709Z,100654.38
2022-07-25T02:06:36.614Z,100671.91
2022-07-25T02:07:38.535Z,100659.78
2022-07-25T02:08:40.324Z,100635.34
2022-07-25T02:09:42.205Z,100642.66
2022-07-25T02:10:44.064Z,100643.94
2022-07-25T02:11:46.287Z,100632.25
2022-07-25T02:12:48.185Z,100646.25
2022-07-25T02:13:50.025Z,100643.31
2022-07-25T02:14:51.973Z,100641.22
2022-07-25T02:15:54.603Z,100623.47
2022-07-25T02:16:56.457Z,100649.16
2022-07-25T02:17:58.635Z,100628.50
2022-07-25T02:19:00.576Z,100625.78
2022-07-25T02:20:02.573Z,100643.13
2022-07-25T02:21:07.338Z,100636.44
2022-07-25T02:22:16.472Z,100624.97
2022-07-25T02:23:18.331Z,100612.84
2022-07-25T02:24:20.477Z,100621.84
2022-07-25T02:25:22.790Z,100608.47
2022-07-25T02:26:24.637Z,100616.88
2022-07-25T02:27:26.496Z,100594.94
2022-07-25T02:28:28.873Z,100612.47
2022-07-25T02:29:30.971Z,100602.66
2022-07-25T02:30:33.043Z,100594.06
2022-07-25T02:31:35.027Z,100585.13
2022-07-25T02:32:36.859Z,100607.88
2022-07-25T02:33:38.894Z,100576.38
2022-07-25T02:34:40.693Z,100605.16
2022-07-25T02:35:42.497Z,100579.72
2022-07-25T02:36:45.913Z,100600.59
2022-07-25T02:37:48.321Z,100584.28
2022-07-25T02:38:50.212Z,100577.63
2022-07-25T02:39:52.012Z,100591.00
2022-07-25T02:40:53.984Z,100573.44
2022-07-25T02:41:55.794Z,100573.25
2022-07-25T02:42:57.608Z,100589.31
2022-07-25T02:43:59.435Z,100566.34
2022-07-25T02:45:02.081Z,100583.25
2022-07-25T02:46:03.991Z,100574.91
2022-07-25T02:47:06.091Z,100568.66
2022-07-25T02:48:07.887Z,100574.91
2022-07-25T02:49:09.705Z,100574.91
2022-07-25T02:50:14.740Z,100575.97
2022-07-25T02:51:18.648Z,100585.13
2022-07-25T02:52:20.460Z,100574.28
2022-07-25T02:53:40.280Z,100579.47
2022-07-25T02:54:44.182Z,100580.34
2022-07-25T02:55:46.483Z,100565.53
2022-07-25T02:56:48.273Z,100575.53
2022-07-25T02:57:50.122Z,100608.50
2022-07-25T02:58:51.927Z,100585.75
2022-07-25T02:59:53.722Z,100611.22
2022-07-25T03:00:55.498Z,100606.84
2022-07-25T03:01:57.510Z,100586.38
2022-07-25T03:02:59.511Z,100593.06
2022-07-25T03:04:01.435Z,100582.19
2022-07-25T03:05:06.672Z,100579.47
2022-07-25T03:06:08.528Z,100568.00
2022-07-25T03:07:10.455Z,100572.63
2022-07-25T03:08:12.261Z,100599.13
2022-07-25T03:09:14.232Z,100590.94
2022-07-25T03:10:16.060Z,100589.09
2022-07-25T03:11:18.018Z,100589.09
2022-07-25T03:12:19.753Z,100599.75
2022-07-25T03:13:21.716Z,100579.28
2022-07-25T03:14:23.559Z,100594.09
2022-07-25T03:15:25.411Z,100590.34
2022-07-25T03:16:27.420Z,100596.00
2022-07-25T03:17:29.569Z,100580.53
2022-07-25T03:18:31.400Z,100590.34
2022-07-25T03:19:33.242Z,100590.56
2022-07-25T03:20:35.052Z,100590.34
2022-07-25T03:21:39.812Z,100593.50
2022-07-25T03:22:41.629Z,100595.19
2022-07-25T03:23:43.471Z,100589.53
2022-07-25T03:24:45.545Z,100583.91
2022-07-25T03:25:47.430Z,100584.09
2022-07-25T03:26:49.259Z,100585.97
2022-07-25T03:27:51.229Z,100583.03
2022-07-25T03:28:53.004Z,100562.19
2022-07-25T03:29:54.902Z,100590.81
2022-07-25T03:30:56.746Z,100579.72
2022-07-25T03:31:59.590Z,100554.69
2022-07-25T03:33:01.404Z,100585.16
2022-07-25T03:34:03.396Z,100582.44
2022-07-25T03:35:06.235Z,100580.59
2022-07-25T03:36:08.376Z,100582.44
2022-07-25T03:37:10.171Z,100574.72
2022-07-25T03:38:11.992Z,100586.81
2022-07-25T03:39:14.618Z,100570.13
2022-07-25T03:40:16.496Z,100586.00
2022-07-25T03:41:18.578Z,100585.16
2022-07-25T03:42:24.949Z,100592.25
2022-07-25T03:43:28.311Z,100570.53
2022-07-25T03:44:30.103Z,100583.50
2022-07-25T03:45:32.008Z,100580.38
2022-07-25T03:46:34.056Z,100583.31
2022-07-25T03:47:35.900Z,100573.47
2022-07-25T03:48:37.994Z,100571.38
2022-07-25T03:49:39.989Z,100570.75
2022-07-25T03:50:41.768Z,100565.34
2022-07-25T03:51:43.874Z,100572.66
2022-07-25T03:52:45.622Z,100543.81
2022-07-25T03:54:02.386Z,100562.41
2022-07-25T03:55:07.365Z,100579.31
2022-07-25T03:56:09.123Z,100572.22
2022-07-25T03:57:12.471Z,100568.06
2022-07-25T03:58:14.469Z,100564.72
2022-07-25T03:59:19.428Z,100550.94
2022-07-25T04:00:21.455Z,100527.59
2022-07-25T04:01:23.312Z,100553.47
2022-07-25T04:02:28.375Z,100555.97
2022-07-25T04:03:30.182Z,100528.00
2022-07-25T04:04:32.069Z,100559.72
2022-07-25T04:05:33.903Z,100548.44
2022-07-25T04:06:36.483Z,100557.22
2022-07-25T04:07:38.885Z,100567.22
2022-07-25T04:08:40.646Z,100549.50
2022-07-25T04:09:42.483Z,100537.38
2022-07-25T04:10:44.448Z,100555.56
2022-07-25T04:11:46.219Z,100548.03
2022-07-25T04:12:48.011Z,100557.22
2022-07-25T04:13:50.390Z,100553.03
2022-07-25T04:14:52.556Z,100528.22
2022-07-25T04:15:54.288Z,100560.13
2022-07-25T04:16:56.432Z,100539.69
2022-07-25T04:17:58.724Z,100556.38
2022-07-25T04:19:01.243Z,100555.56
2022-07-25T04:20:05.561Z,100531.97
2022-07-25T04:21:09.365Z,100541.34
2022-07-25T04:22:11.462Z,100552.63
2022-07-25T04:23:13.564Z,100543.03
2022-07-25T04:24:16.145Z,100554.72
2022-07-25T04:25:18.094Z,100550.75
2022-07-25T04:26:20.288Z,100552.00
2022-07-25T04:27:22.404Z,100525.50
2022-07-25T04:28:28.039Z,100543.06
2022-07-25T04:29:29.952Z,100527.19
2022-07-25T04:30:31.756Z,100541.78
2022-07-25T04:31:33.903Z,100533.88
2022-07-25T04:32:35.855Z,100532.22
2022-07-25T04:33:38.604Z,100535.75
2022-07-25T04:34:40.400Z,100539.31
2022-07-25T04:35:42.898Z,100523.44
2022-07-25T04:36:44.807Z,100519.69
2022-07-25T04:37:46.686Z,100526.13
2022-07-25T04:38:48.614Z,100542.19
2022-07-25T04:39:50.340Z,100525.50
2022-07-25T04:40:52.115Z,100522.56
2022-07-25T04:41:54.003Z,100512.16
2022-07-25T04:42:55.774Z,100532.59
2022-07-25T04:43:57.704Z,100533.03
2022-07-25T04:44:59.632Z,100512.59
2022-07-25T04:46:02.105Z,100531.34
2022-07-25T04:47:04.721Z,100522.19
2022-07-25T04:48:06.963Z,100521.38
2022-07-25T04:49:09.041Z,100516.75
2022-07-25T04:50:10.915Z,100522.19
2022-07-25T04:51:12.760Z,100522.19
2022-07-25T04:52:14.980Z,100480.84
2022-07-25T04:53:16.963Z,100508.84
2022-07-25T04:54:18.773Z,100506.97
2022-07-25T04:55:20.836Z,100492.75
2022-07-25T04:56:22.644Z,100497.16
2022-07-25T04:57:24.633Z,100508.00
2022-07-25T04:58:26.456Z,100488.78
2022-07-25T04:59:28.237Z,100490.69
2022-07-25T05:00:30.053Z,100507.81
2022-07-25T05:01:31.940Z,100480.66
2022-07-25T05:02:34.265Z,100487.16
2022-07-25T05:03:36.275Z,100494.25
2022-07-25T05:04:43.442Z,100491.13
2022-07-25T05:05:47.118Z,100500.31
2022-07-25T05:06:49.031Z,100483.41
2022-07-25T05:07:51.496Z,100486.13
2022-07-25T05:08:53.341Z,100480.47
2022-07-25T05:09:55.234Z,100488.81
2022-07-25T05:10:57.008Z,100497.59
2022-07-25T05:11:59.024Z,100501.75
2022-07-25T05:13:01.186Z,100479.84
2022-07-25T05:14:03.334Z,100487.81
2022-07-25T05:15:06.420Z,100486.53
2022-07-25T05:16:08.497Z,100488.00
2022-07-25T05:17:11.360Z,100496.97
2022-07-25T05:18:13.289Z,100499.28
2022-07-25T05:19:15.413Z,100488.22
2022-07-25T05:20:17.376Z,100490.91
2022-07-25T05:21:19.127Z,100488.22
2022-07-25T05:22:25.119Z,100494.50
2022-07-25T05:23:30.116Z,100484.88
2022-07-25T05:24:36.226Z,100492.00
2022-07-25T05:25:38.047Z,100502.84
2022-07-25T05:26:39.976Z,100488.44
2022-07-25T05:27:42.089Z,100458.81
2022-07-25T05:28:44.014Z,100499.28
2022-07-25T05:29:45.871Z,100498.50
2022-07-25T05:30:47.846Z,100500.56
2022-07-25T05:31:49.784Z,100476.97
2022-07-25T05:32:51.681Z,100482.19
2022-07-25T05:33:53.701Z,100485.53
2022-07-25T05:34:55.536Z,100470.72
2022-07-25T05:35:57.333Z,100476.78
2022-07-25T05:36:59.114Z,100462.34
2022-07-25T05:38:00.892Z,100475.91
2022-07-25T05:39:02.776Z,100472.59
2022-07-25T05:40:06.735Z,100476.94
2022-07-25T05:41:08.673Z,100466.50
2022-07-25T05:42:10.515Z,100453.16
2022-07-25T05:43:12.299Z,100452.94
2022-07-25T05:44:14.075Z,100467.13
2022-07-25T05:45:16.053Z,100460.44
2022-07-25T05:46:17.912Z,100463.56
2022-07-25T05:47:19.706Z,100472.53
2022-07-25T05:48:21.826Z,100446.25
2022-07-25T05:49:23.607Z,100451.47
2022-07-25T05:50:25.575Z,100471.69
2022-07-25T05:51:27.773Z,100474.19
2022-07-25T05:52:29.605Z,100474.63
2022-07-25T05:53:31.412Z,100475.44
2022-07-25T05:54:34.717Z,100479.00
2022-07-25T05:55:40.895Z,100483.75
2022-07-25T05:56:43.189Z,100477.50
2022-07-25T05:57:45.097Z,100483.34
2022-07-25T05:58:46.937Z,100472.09
2022-07-25T05:59:48.829Z,100480.41
2022-07-25T06:00:53.508Z,100461.22
2022-07-25T06:01:55.526Z,100477.88
2022-07-25T06:03:00.895Z,100470.38
2022-07-25T06:04:03.051Z,100455.38
2022-07-25T06:05:05.296Z,100466.41
2022-07-25T06:06:08.953Z,100450.13
2022-07-25T06:07:10.980Z,100464.31
2022-07-25T06:08:18.780Z,100471.59
2022-07-25T06:09:22.122Z,100462.38
2022-07-25T06:10:24.484Z,100468.66
2022-07-25T06:11:31.005Z,100454.50
2022-07-25T06:12:33.778Z,100472.63
2022-07-25T06:13:38.555Z,100468.44
2022-07-25T06:14:40.348Z,100456.97
2022-07-25T06:15:42.267Z,100465.28
2022-07-25T06:16:44.202Z,100445.06
2022-07-25T06:17:46.202Z,100452.56
2022-07-25T06:18:48.008Z,100448.19
2022-07-25T06:19:49.932Z,100458.81
2022-07-25T06:20:52.259Z,100464.03
2022-07-25T06:21:54.010Z,100451.06
2022-07-25T06:22:55.938Z,100455.47
2022-07-25T06:23:57.832Z,100456.09
2022-07-25T06:24:59.615Z,100438.56
2022-07-25T06:26:01.779Z,100448.13
2022-07-25T06:27:03.732Z,100430.84
2022-07-25T06:28:05.679Z,100455.84
2022-07-25T06:29:12.838Z,100458.34
2022-07-25T06:30:20.081Z,100451.03
2022-07-25T06:31:22.475Z,100399.38
2022-07-25T06:32:24.585Z,100440.22
2022-07-25T06:33:26.377Z,100444.59
2022-07-25T06:34:28.993Z,100450.22
2022-07-25T06:35:30.936Z,100439.97
2022-07-25T06:36:33.170Z,100438.94
2022-07-25T06:37:37.923Z,100449.16
2022-07-25T06:38:39.789Z,100435.59
2022-07-25T06:39:45.674Z,100425.59
2022-07-25T06:40:48.094Z,100448.91
2022-07-25T06:41:50.174Z,100446.84
2022-07-25T06:42:52.821Z,100436.00
2022-07-25T06:43:54.841Z,100432.25
2022-07-25T06:44:56.800Z,100453.94
2022-07-25T06:45:58.651Z,100441.81
2022-07-25T06:47:02.504Z,100453.94
2022-07-25T06:48:04.713Z,100432.00
2022-07-25T06:49:07.299Z,100441.81
2022-07-25T06:50:13.285Z,100443.09
2022-07-25T06:51:15.235Z,100443.09
2022-07-25T06:52:17.122Z,100430.56
2022-07-25T06:53:18.959Z,100436.81
2022-07-25T06:54:20.946Z,100452.91
2022-07-25T06:55:22.763Z,100450.38
2022-07-25T06:56:24.635Z,100428.06
2022-07-25T06:57:26.487Z,100437.84
2022-07-25T06:58:29.052Z,100446.41
2022-07-25T06:59:31.004Z,100437.66
2022-07-25T07:00:32.865Z,100424.69
2022-07-25T07:01:34.918Z,100435.53
2022-07-25T07:02:49.012Z,100434.53
2022-07-25T07:03:50.964Z,100436.41
2022-07-25T07:04:53.375Z,100421.38
2022-07-25T07:05:55.260Z,100439.72
2022-07-25T07:06:57.301Z,100438.06
2022-07-25T07:08:00.161Z,100429.28
2022-07-25T07:09:02.043Z,100425.53
2022-07-25T07:10:04.501Z,100436.38
2022-07-25T07:11:07.509Z,100442.69
2022-07-25T07:12:10.131Z,100436.78
2022-07-25T07:13:15.885Z,100439.72
2022-07-25T07:14:20.564Z,100440.56
2022-07-25T07:15:22.415Z,100443.06
2022-07-25T07:16:24.472Z,100425.13
2022-07-25T07:17:26.352Z,100406.31
2022-07-25T07:18:28.179Z,100435.13
2022-07-25T07:19:30.315Z,100440.78
2022-07-25T07:20:32.562Z,100439.72
2022-07-25T07:21:34.350Z,100427.84
2022-07-25T07:22:49.622Z,100440.94
2022-07-25T07:23:51.911Z,100423.00
2022-07-25T07:24:55.832Z,100431.38
2022-07-25T07:25:59.006Z,100428.22
2022-07-25T07:27:00.786Z,100420.09
2022-07-25T07:28:02.869Z,100435.50
2022-07-25T07:29:04.891Z,100413.81
2022-07-25T07:30:07.575Z,100409.00
2022-07-25T07:31:16.921Z,100416.72
2022-07-25T07:32:19.482Z,100421.72
2022-07-25T07:33:21.399Z,100420.88
2022-07-25T07:34:23.150Z,100420.94
2022-07-25T07:35:25.543Z,100423.41
2022-07-25T07:36:29.524Z,100397.53
2022-07-25T07:37:36.545Z,100423.84
2022-07-25T07:38:40.659Z,100418.56
2022-07-25T07:39:42.552Z,100404.84
2022-07-25T07:40:44.424Z,100411.28
2022-07-25T07:41:46.228Z,100408.75
2022-07-25T07:42:49.526Z,100415.25
2022-07-25T07:43:51.303Z,100421.28
2022-07-25T07:44:53.083Z,100402.53
2022-07-25T07:45:56.142Z,100414.19
2022-07-25T07:47:01.721Z,100398.97
2022-07-25T07:48:03.716Z,100400.44
2022-07-25T07:49:05.946Z,100416.66
2022-07-25T07:50:09.724Z,100407.69
2022-07-25T07:51:11.484Z,100374.53
2022-07-25T07:52:13.271Z,100398.69
2022-07-25T07:53:15.115Z,100401.22
2022-07-25T07:54:35.541Z,100389.56
2022-07-25T07:55:48.908Z,100400.53
2022-07-25T07:56:50.877Z,100397.00
2022-07-25T07:57:52.915Z,100392.00
2022-07-25T07:58:54.675Z,100394.13
2022-07-25T07:59:56.439Z,100373.25
2022-07-25T08:00:58.264Z,100382.47
2022-07-25T08:02:00.364Z,100380.19
2022-07-25T08:03:03.594Z,100390.34
2022-07-25T08:04:05.720Z,100385.97
2022-07-25T08:05:08.310Z,100375.38
2022-07-25T08:06:10.077Z,100376.19
2022-07-25T08:07:11.821Z,100379.50
2022-07-25T08:08:15.310Z,100392.44
2022-07-25T08:09:17.082Z,100377.47
2022-07-25T08:10:23.983Z,100383.25
2022-07-25T08:11:26.569Z,100380.34
2022-07-25T08:12:28.401Z,100372.66
2022-07-25T08:13:34.046Z,100365.34
2022-07-25T08:14:35.974Z,100366.16
2022-07-25T08:15:37.794Z,100388.25
2022-07-25T08:16:39.882Z,100364.50
2022-07-25T08:17:42.069Z,100375.69
2022-07-25T08:18:44.818Z,100372.97
2022-07-25T08:19:46.641Z,100375.28
2022-07-25T08:20:49.731Z,100382.81
2022-07-25T08:21:51.520Z,100381.13
2022-07-25T08:22:56.629Z,100356.56
2022-07-25T08:23:58.874Z,100363.44
2022-07-25T08:25:00.904Z,100388.25
2022-07-25T08:26:04.034Z,100380.09
2022-07-25T08:27:05.858Z,100371.34
2022-07-25T08:28:08.010Z,100392.00
2022-07-25T08:29:19.061Z,100384.91
2022-07-25T08:30:22.030Z,100380.69
2022-07-25T08:31:24.287Z,100376.59
2022-07-25T08:32:26.212Z,100377.19
2022-07-25T08:33:28.550Z,100370.75
2022-07-25T08:34:30.322Z,100384.66
2022-07-25T08:35:34.289Z,100361.16
2022-07-25T08:36:36.095Z,100366.97
2022-07-25T08:37:38.089Z,100377.81
2022-07-25T08:38:40.135Z,100369.50
2022-07-25T08:39:42.439Z,100371.59
2022-07-25T08:40:44.555Z,100386.34
2022-07-25T08:41:47.080Z,100383.44
2022-07-25T08:42:50.101Z,100371.75
2022-07-25T08:43:52.488Z,100366.09
2022-07-25T08:45:00.389Z,100354.25
2022-07-25T08:46:05.086Z,100372.75
2022-07-25T08:47:10.396Z,100334.44
2022-07-25T08:48:17.926Z,100361.09
2022-07-25T08:49:20.603Z,100361.25
2022-07-25T08:50:25.662Z,100368.16
2022-07-25T08:51:28.248Z,100367.75
2022-07-25T08:52:30.249Z,100371.94
2022-07-25T08:53:34.302Z,100364.38
2022-07-25T08:54:37.296Z,100360.91
2022-07-25T08:55:39.684Z,100369.81
2022-07-25T08:56:41.453Z,100350.22
2022-07-25T08:57:44.312Z,100366.50
2022-07-25T08:58:46.341Z,100360.22
2022-07-25T08:59:48.136Z,100340.03
2022-07-25T09:00:50.092Z,100351.44
2022-07-25T09:01:51.943Z,100347.75
2022-07-25T09:02:56.305Z,100348.53
2022-07-25T09:03:58.766Z,100342.06
2022-07-25T09:05:00.568Z,100337.94
2022-07-25T09:06:12.927Z,100341.25
2022-07-25T09:07:14.940Z,100348.69
2022-07-25T09:08:17.723Z,100341.19
2022-07-25T09:09:19.822Z,100326.00
2022-07-25T09:10:25.532Z,100338.28
2022-07-25T09:11:37.782Z,100319.72
2022-07-25T09:12:40.399Z,100315.06
2022-07-25T09:13:42.458Z,100323.91
2022-07-25T09:14:44.777Z,100340.97
2022-07-25T09:15:55.413Z,100338.88
2022-07-25T09:16:58.068Z,100335.94
2022-07-25T09:18:03.395Z,100339.72
2022-07-25T09:19:12.750Z,100335.31
2022-07-25T09:20:18.385Z,100341.59
2022-07-25T09:21:20.446Z,100333.00
2022-07-25T09:22:22.805Z,100339.47
2022-07-25T09:23:30.623Z,100338.03
2022-07-25T09:24:33.058Z,100335.56
2022-07-25T09:25:35.324Z,100328.44
2022-07-25T09:26:48.595Z,100344.50
2022-07-25T09:27:50.822Z,100336.31
2022-07-25T09:28:54.070Z,100314.69
2022-07-25T09:29:55.975Z,100338.44
2022-07-25T09:31:01.241Z,100344.31
2022-07-25T09:32:18.038Z,100343.66
2022-07-25T09:33:20.028Z,100340.09
2022-07-25T09:34:41.787Z,100325.28
2022-07-25T09:35:43.723Z,100328.84
2022-07-25T09:36:55.625Z,100341.09
2022-07-25T09:38:11.517Z,100333.59
2022-07-25T09:39:13.361Z,100322.56
2022-07-25T09:40:16.176Z,100322.78
2022-07-25T09:41:17.980Z,100323.41
2022-07-25T09:42:22.872Z,100329.84
2022-07-25T09:43:37.644Z,100330.88
2022-07-25T09:44:39.708Z,100317.13
2022-07-25T09:45:50.751Z,100299.03
2022-07-25T09:46:52.851Z,100322.56
2022-07-25T09:47:58.173Z,100335.88
2022-07-25T09:49:01.170Z,100324.69
2022-07-25T09:50:05.377Z,100347.59
2022-07-25T09:51:07.609Z,100348.41
2022-07-25T09:52:10.979Z,100339.72
2022-07-25T09:53:13.384Z,100327.16
2022-07-25T09:54:15.987Z,100335.88
2022-07-25T09:55:18.107Z,100329.22
2022-07-25T09:56:20.200Z,100328.78
2022-07-25T09:57:26.439Z,100305.06
2022-07-25T09:58:29.634Z,100331.28
2022-07-25T09:59:34.510Z,100313.81
2022-07-25T10:00:36.465Z,100316.47
2022-07-25T10:01:55.215Z,100308.38
2022-07-25T10:03:10.048Z,100321.19
2022-07-25T10:04:37.519Z,100315.16
2022-07-25T10:06:03.799Z,100325.72
2022-07-25T10:07:10.893Z,100315.91
2022-07-25T10:08:13.365Z,100326.78
2022-07-25T10:09:16.442Z,100320.94
2022-07-25T10:10:29.182Z,100318.47
2022-07-25T10:11:31.550Z,100318.22
2022-07-25T10:12:34.153Z,100323.66
2022-07-25T10:13:38.388Z,100299.31
2022-07-25T10:14:40.884Z,100305.81
2022-07-25T10:15:50.051Z,100308.69
2022-07-25T10:16:52.196Z,100318.22
2022-07-25T10:18:04.774Z,100308.19
2022-07-25T10:19:06.843Z,100315.31
2022-07-25T10:20:10.423Z,100313.63
2022-07-25T10:21:25.620Z,100311.75
2022-07-25T10:22:55.805Z,100315.69
2022-07-25T10:24:10.538Z,100313.94
2022-07-25T10:25:14.737Z,100322.34
2022-07-25T10:26:16.589Z,100312.13
2022-07-25T10:27:23.832Z,100308.59
2022-07-25T10:28:42.965Z,100306.50
2022-07-25T10:29:52.676Z,100297.09
2022-07-25T10:30:58.764Z,100304.59
2022-07-25T10:32:12.531Z,100291.03
2022-07-25T10:33:19.009Z,100301.66
2022-07-25T10:34:31.825Z,100308.16
2022-07-25T10:35:33.935Z,100296.03
2022-07-25T10:36:52.011Z,100283.13
2022-07-25T10:37:55.721Z,100281.19
2022-07-25T10:38:59.737Z,100263.25
2022-07-25T10:40:02.413Z,100270.59
2022-07-25T10:41:04.948Z,100281.63
2022-07-25T10:42:07.785Z,100277.44
2022-07-25T10:43:14.306Z,100280.97
2022-07-25T10:44:17.066Z,100283.44
2022-07-25T10:45:18.947Z,100276.41
2022-07-25T10:46:23.540Z,100277.63
2022-07-25T10:47:28.249Z,100278.84
2022-07-25T10:48:32.253Z,100267.59
2022-07-25T10:49:50.075Z,100277.56
2022-07-25T10:51:08.649Z,100256.50
2022-07-25T10:52:19.118Z,100273.72
2022-07-25T10:53:50.307Z,100265.13
2022-07-25T10:54:55.129Z,100232.91
2022-07-25T10:56:05.824Z,100265.56
2022-07-25T10:57:15.695Z,100256.56
2022-07-25T10:58:18.422Z,100248.72
2022-07-25T10:59:31.303Z,100253.94
2022-07-25T11:00:43.430Z,100241.00
2022-07-25T11:01:50.977Z,100261.63
2022-07-25T11:02:59.055Z,100241.25
2022-07-25T11:04:03.583Z,100247.66
2022-07-25T11:05:05.867Z,100251.41
2022-07-25T11:06:08.008Z,100247.28
2022-07-25T11:07:16.227Z,100226.66
2022-07-25T11:08:22.577Z,100261.78
2022-07-25T11:09:28.928Z,100232.84
2022-07-25T11:10:30.737Z,100244.72
2022-07-25T11:11:35.194Z,100252.78
2022-07-25T11:12:37.500Z,100241.41
2022-07-25T11:13:41.328Z,100249.09
2022-07-25T11:14:43.584Z,100244.72
2022-07-25T11:15:45.457Z,100263.66
2022-07-25T11:16:50.305Z,100250.16
2022-07-25T11:17:53.602Z,100260.13
2022-07-25T11:18:55.583Z,100237.81
2022-07-25T11:20:04.105Z,100259.06
2022-07-25T11:21:08.306Z,100256.94
2022-07-25T11:22:10.881Z,100259.66
2022-07-25T11:23:21.411Z,100246.53
2022-07-25T11:24:35.352Z,100249.84
2022-07-25T11:25:37.321Z,100237.31
2022-07-25T11:26:50.888Z,100242.75
2022-07-25T11:27:58.361Z,100231.28
2022-07-25T11:29:00.126Z,100237.78
2022-07-25T11:30:15.069Z,100227.50
2022-07-25T11:31:19.089Z,100246.25
2022-07-25T11:32:21.091Z,100225.22
2022-07-25T11:33:23.057Z,100239.19
2022-07-25T11:34:29.112Z,100225.09
2022-07-25T11:35:32.420Z,100248.16
2022-07-25T11:36:34.634Z,100226.66
2022-07-25T11:37:39.665Z,100248.16
2022-07-25T11:38:41.923Z,100235.19
2022-07-25T11:39:46.161Z,100229.75
2022-07-25T11:40:48.489Z,100238.69
2022-07-25T11:42:19.187Z,100214.13
2022-07-25T11:43:23.258Z,100229.63
2022-07-25T11:44:47.244Z,100239.25
2022-07-25T11:46:01.681Z,100235.00
2022-07-25T11:47:06.410Z,100233.81
2022-07-25T11:48:10.517Z,100228.44
2022-07-25T11:49:12.930Z,100227.16
2022-07-25T11:50:15.565Z,100217.56
2022-07-25T11:51:19.570Z,100234.63
2022-07-25T11:52:27.538Z,100217.19
2022-07-25T11:53:40.467Z,100221.63
2022-07-25T11:54:51.809Z,100210.84
2022-07-25T11:55:53.683Z,100209.53
2022-07-25T11:56:55.530Z,100222.22
2022-07-25T11:58:03.803Z,100217.84
2022-07-25T11:59:05.997Z,100214.06
2022-07-25T12:00:19.848Z,100215.13
2022-07-25T12:01:21.707Z,100194.53
2022-07-25T12:02:35.367Z,100200.09
2022-07-25T12:03:38.695Z,100196.78
2022-07-25T12:04:40.795Z,100199.25
2022-07-25T12:05:43.658Z,100206.97